Terminal Aerodrome Forecast
Issued by NWS Sterling, VA

Current Version | Previous Version | Graphics & Text | Print | Product List | Glossary On
Versions: 1 2 3 4 5 6 7 8 9 10 11 12 13 14 15 16 17 18 19 20 21
000
FTUS41 KLWX 282100 AAA
TAFIAD
TAF AMD
KIAD 282103Z 2821/2924 32011KT P6SM SKC
     FM282300 32005KT P6SM SKC
     FM291400 14005KT P6SM SCT080 OVC120
     FM291700 16009KT P6SM SCT060 OVC090
     FM292200 17010KT 3SM -RASN SCT035 OVC060=

USA.gov is the U.S. government's official web portal to all federal, state and local government web resources and services.